Greenbelt, Maryland
Current Conditions -  °F | °C
As of 7:10 PM on Wednesday 22 Oct 2014 (Local Time) from KCGS Reporting Station
Overcast Overcast  
Wind Chill: 13°   Ceiling: 7000
Heat Index: 13°   Visibility: 10mi
Dew Point:   Wind: 8mph
Humidity: 72%   Direction: 330°NNW
Pressure: 29.93"   Gusts: 18mph
Location:  39°N, 76.88°W
Report Text: KCGS 222310Z AUTO 33007G16KT 10SM SCT049 OVC070 13/08 A2993 RMK AO1
Loading
Personal Weather Stations






























Interactive Weather Map
Tropical Storm Tracking
New forecast layout! Learn more

10-Day Weather Forecast

Advertisements
Track Severe Weather on mobile